sensor_id;sensor_type;location;lat;lon;timestamp;P1;durP1;ratioP1;P2;durP2;ratioP2
15234;SDS011;7720;51.926;4.488;2023-04-29T11:55:07;7.97;;;5.75;;
15234;SDS011;7720;51.926;4.488;2023-04-29T12:00:11;13.70;;;7.13;;
15234;SDS011;7720;51.926;4.488;2023-04-29T12:05:17;7.28;;;5.50;;
15234;SDS011;7720;51.926;4.488;2023-04-29T12:10:22;32.92;;;8.18;;
15234;SDS011;7720;51.926;4.488;2023-04-29T12:15:25;40.03;;;8.57;;
15234;SDS011;7720;51.926;4.488;2023-04-29T12:20:30;23.17;;;7.05;;
15234;SDS011;7720;51.926;4.488;2023-04-29T12:25:35;41.88;;;9.25;;
15234;SDS011;7720;51.926;4.488;2023-04-29T12:30:38;28.65;;;8.25;;
15234;SDS011;7720;51.926;4.488;2023-04-29T12:35:42;22.67;;;7.72;;
15234;SDS011;7720;51.926;4.488;2023-04-29T12:40:47;28.15;;;7.97;;
15234;SDS011;7720;51.926;4.488;2023-04-29T12:45:52;27.42;;;7.80;;
15234;SDS011;7720;51.926;4.488;2023-04-29T12:50:56;29.83;;;8.95;;
15234;SDS011;7720;51.926;4.488;2023-04-29T12:56:02;7.78;;;6.32;;
15234;SDS011;7720;51.926;4.488;2023-04-29T13:01:05;17.75;;;9.75;;
15234;SDS011;7720;51.926;4.488;2023-04-29T13:06:09;13.13;;;6.00;;
15234;SDS011;7720;51.926;4.488;2023-04-29T13:11:13;7.63;;;5.97;;
15234;SDS011;7720;51.926;4.488;2023-04-29T13:16:16;9.52;;;7.03;;
15234;SDS011;7720;51.926;4.488;2023-04-29T13:21:20;10.07;;;6.90;;
15234;SDS011;7720;51.926;4.488;2023-04-29T13:26:25;10.55;;;7.05;;
15234;SDS011;7720;51.926;4.488;2023-04-29T13:31:28;10.65;;;7.22;;
15234;SDS011;7720;51.926;4.488;2023-04-29T13:36:31;11.75;;;7.75;;
15234;SDS011;7720;51.926;4.488;2023-04-29T13:41:36;11.70;;;7.47;;
15234;SDS011;7720;51.926;4.488;2023-04-29T13:46:45;12.45;;;7.85;;
15234;SDS011;7720;51.926;4.488;2023-04-29T13:51:49;12.20;;;7.53;;
15234;SDS011;7720;51.926;4.488;2023-04-29T13:56:56;10.40;;;6.95;;
15234;SDS011;7720;51.926;4.488;2023-04-29T14:02:19;10.80;;;7.40;;
15234;SDS011;7720;51.926;4.488;2023-04-29T14:07:26;10.80;;;6.70;;
15234;SDS011;7720;51.926;4.488;2023-04-29T14:12:31;11.15;;;7.20;;
15234;SDS011;7720;51.926;4.488;2023-04-29T14:17:34;12.15;;;7.93;;
15234;SDS011;7720;51.926;4.488;2023-04-29T14:22:37;11.68;;;8.23;;
15234;SDS011;7720;51.926;4.488;2023-04-29T14:27:42;12.45;;;7.82;;
15234;SDS011;7720;51.926;4.488;2023-04-29T14:34:49;11.57;;;8.20;;
15234;SDS011;7720;51.926;4.488;2023-04-29T14:39:53;9.95;;;6.63;;
15234;SDS011;7720;51.926;4.488;2023-04-29T14:44:57;8.50;;;5.60;;
15234;SDS011;7720;51.926;4.488;2023-04-29T14:50:06;9.35;;;5.50;;
15234;SDS011;7720;51.926;4.488;2023-04-29T14:55:10;8.15;;;5.47;;
15234;SDS011;7720;51.926;4.488;2023-04-29T15:00:14;8.75;;;6.43;;
15234;SDS011;7720;51.926;4.488;2023-04-29T15:05:20;11.40;;;8.25;;
15234;SDS011;7720;51.926;4.488;2023-04-29T15:10:24;11.90;;;6.65;;
15234;SDS011;7720;51.926;4.488;2023-04-29T15:15:27;8.73;;;6.43;;
15234;SDS011;7720;51.926;4.488;2023-04-29T15:20:33;8.65;;;5.90;;
15234;SDS011;7720;51.926;4.488;2023-04-29T15:25:37;7.18;;;6.07;;
15234;SDS011;7720;51.926;4.488;2023-04-29T15:30:41;9.63;;;6.85;;
15234;SDS011;7720;51.926;4.488;2023-04-29T15:35:46;9.77;;;6.00;;
15234;SDS011;7720;51.926;4.488;2023-04-29T15:40:50;9.30;;;6.18;;
15234;SDS011;7720;51.926;4.488;2023-04-29T15:45:59;9.77;;;6.15;;
15234;SDS011;7720;51.926;4.488;2023-04-29T15:51:04;7.78;;;5.85;;
15234;SDS011;7720;51.926;4.488;2023-04-29T15:56:10;10.73;;;7.13;;
15234;SDS011;7720;51.926;4.488;2023-04-29T16:01:14;8.68;;;6.53;;
15234;SDS011;7720;51.926;4.488;2023-04-29T16:06:19;16.20;;;10.95;;
15234;SDS011;7720;51.926;4.488;2023-04-29T16:11:22;13.95;;;8.48;;
15234;SDS011;7720;51.926;4.488;2023-04-29T16:16:26;11.02;;;7.60;;
15234;SDS011;7720;51.926;4.488;2023-04-29T16:21:31;11.38;;;5.50;;
15234;SDS011;7720;51.926;4.488;2023-04-29T16:26:35;9.68;;;5.13;;
15234;SDS011;7720;51.926;4.488;2023-04-29T16:31:40;8.05;;;5.07;;
15234;SDS011;7720;51.926;4.488;2023-04-29T16:36:45;7.00;;;4.88;;
15234;SDS011;7720;51.926;4.488;2023-04-29T16:41:49;8.68;;;5.05;;
15234;SDS011;7720;51.926;4.488;2023-04-29T16:46:53;7.60;;;4.07;;
15234;SDS011;7720;51.926;4.488;2023-04-29T16:51:58;7.53;;;4.15;;
15234;SDS011;7720;51.926;4.488;2023-04-29T16:57:02;9.20;;;5.13;;
15234;SDS011;7720;51.926;4.488;2023-04-29T17:02:06;6.40;;;3.70;;
15234;SDS011;7720;51.926;4.488;2023-04-29T17:07:11;6.45;;;3.30;;
15234;SDS011;7720;51.926;4.488;2023-04-29T17:12:16;5.80;;;3.78;;
15234;SDS011;7720;51.926;4.488;2023-04-29T17:17:19;7.95;;;4.22;;
15234;SDS011;7720;51.926;4.488;2023-04-29T17:22:24;6.82;;;4.82;;
15234;SDS011;7720;51.926;4.488;2023-04-29T17:27:28;7.85;;;3.65;;
15234;SDS011;7720;51.926;4.488;2023-04-29T17:32:32;6.90;;;3.88;;
15234;SDS011;7720;51.926;4.488;2023-04-29T17:37:41;5.65;;;2.92;;
15234;SDS011;7720;51.926;4.488;2023-04-29T17:42:44;6.95;;;3.88;;
15234;SDS011;7720;51.926;4.488;2023-04-29T17:47:48;6.38;;;3.65;;
15234;SDS011;7720;51.926;4.488;2023-04-29T17:52:53;5.30;;;3.13;;
15234;SDS011;7720;51.926;4.488;2023-04-29T17:57:56;4.38;;;2.55;;
15234;SDS011;7720;51.926;4.488;2023-04-29T18:03:00;5.75;;;2.70;;
15234;SDS011;7720;51.926;4.488;2023-04-29T18:08:05;8.38;;;3.03;;
15234;SDS011;7720;51.926;4.488;2023-04-29T18:13:09;5.05;;;2.72;;
15234;SDS011;7720;51.926;4.488;2023-04-29T18:18:13;4.60;;;2.00;;
15234;SDS011;7720;51.926;4.488;2023-04-29T18:23:18;5.70;;;2.38;;
15234;SDS011;7720;51.926;4.488;2023-04-29T18:28:23;6.13;;;2.38;;
15234;SDS011;7720;51.926;4.488;2023-04-29T18:33:26;4.25;;;2.20;;
15234;SDS011;7720;51.926;4.488;2023-04-29T18:38:32;6.28;;;2.40;;
15234;SDS011;7720;51.926;4.488;2023-04-29T18:43:36;4.95;;;2.08;;
15234;SDS011;7720;51.926;4.488;2023-04-29T18:48:40;8.40;;;2.10;;
15234;SDS011;7720;51.926;4.488;2023-04-29T18:53:45;4.25;;;2.47;;
15234;SDS011;7720;51.926;4.488;2023-04-29T18:58:49;3.60;;;1.98;;
15234;SDS011;7720;51.926;4.488;2023-04-29T19:03:53;4.90;;;2.20;;
15234;SDS011;7720;51.926;4.488;2023-04-29T19:08:59;2.67;;;1.95;;
15234;SDS011;7720;51.926;4.488;2023-04-29T19:14:02;2.45;;;1.70;;
15234;SDS011;7720;51.926;4.488;2023-04-29T19:19:06;3.83;;;1.80;;
15234;SDS011;7720;51.926;4.488;2023-04-29T19:24:11;3.90;;;1.90;;
15234;SDS011;7720;51.926;4.488;2023-04-29T19:29:15;2.75;;;2.00;;
15234;SDS011;7720;51.926;4.488;2023-04-29T19:34:19;3.65;;;1.90;;
15234;SDS011;7720;51.926;4.488;2023-04-29T19:39:24;5.00;;;2.33;;
15234;SDS011;7720;51.926;4.488;2023-04-29T19:44:29;5.32;;;1.90;;
15234;SDS011;7720;51.926;4.488;2023-04-29T19:49:32;5.05;;;1.80;;
15234;SDS011;7720;51.926;4.488;2023-04-29T19:54:37;5.72;;;2.20;;
15234;SDS011;7720;51.926;4.488;2023-04-29T19:59:42;6.60;;;2.67;;
15234;SDS011;7720;51.926;4.488;2023-04-29T20:04:45;6.75;;;2.20;;
15234;SDS011;7720;51.926;4.488;2023-04-29T20:09:51;4.00;;;2.25;;
15234;SDS011;7720;51.926;4.488;2023-04-29T20:14:55;4.43;;;2.03;;
15234;SDS011;7720;51.926;4.488;2023-04-29T20:19:58;5.07;;;2.10;;
15234;SDS011;7720;51.926;4.488;2023-04-29T20:25:04;3.30;;;2.38;;
15234;SDS011;7720;51.926;4.488;2023-04-29T20:30:08;6.18;;;2.67;;
15234;SDS011;7720;51.926;4.488;2023-04-29T20:35:12;5.97;;;2.78;;
15234;SDS011;7720;51.926;4.488;2023-04-29T20:40:17;4.20;;;2.63;;
15234;SDS011;7720;51.926;4.488;2023-04-29T20:45:21;5.63;;;3.25;;
15234;SDS011;7720;51.926;4.488;2023-04-29T20:50:25;7.30;;;3.58;;
15234;SDS011;7720;51.926;4.488;2023-04-29T20:55:30;5.40;;;3.42;;
15234;SDS011;7720;51.926;4.488;2023-04-29T21:00:33;5.18;;;4.07;;
15234;SDS011;7720;51.926;4.488;2023-04-29T21:05:37;4.85;;;3.65;;
15234;SDS011;7720;51.926;4.488;2023-04-29T21:10:42;6.50;;;4.30;;
15234;SDS011;7720;51.926;4.488;2023-04-29T21:15:46;8.00;;;4.15;;
15234;SDS011;7720;51.926;4.488;2023-04-29T21:20:49;6.57;;;4.93;;
15234;SDS011;7720;51.926;4.488;2023-04-29T21:25:54;6.72;;;4.68;;
15234;SDS011;7720;51.926;4.488;2023-04-29T21:30:58;11.52;;;5.38;;
15234;SDS011;7720;51.926;4.488;2023-04-29T21:36:01;11.88;;;5.93;;
15234;SDS011;7720;51.926;4.488;2023-04-29T21:41:06;9.80;;;5.82;;
15234;SDS011;7720;51.926;4.488;2023-04-29T21:46:11;10.43;;;5.93;;
15234;SDS011;7720;51.926;4.488;2023-04-29T21:51:14;10.15;;;5.63;;
15234;SDS011;7720;51.926;4.488;2023-04-29T21:56:21;8.52;;;6.20;;
15234;SDS011;7720;51.926;4.488;2023-04-29T22:01:25;9.73;;;6.38;;
15234;SDS011;7720;51.926;4.488;2023-04-29T22:06:40;10.30;;;6.93;;
15234;SDS011;7720;51.926;4.488;2023-04-29T22:11:46;10.60;;;6.43;;
15234;SDS011;7720;51.926;4.488;2023-04-29T22:16:49;9.13;;;7.22;;
15234;SDS011;7720;51.926;4.488;2023-04-29T22:21:53;11.63;;;7.05;;
15234;SDS011;7720;51.926;4.488;2023-04-29T22:26:58;10.55;;;7.45;;
15234;SDS011;7720;51.926;4.488;2023-04-29T22:32:02;10.55;;;7.15;;
15234;SDS011;7720;51.926;4.488;2023-04-29T22:37:06;11.32;;;8.02;;
15234;SDS011;7720;51.926;4.488;2023-04-29T22:42:11;11.55;;;7.97;;
15234;SDS011;7720;51.926;4.488;2023-04-29T22:47:16;12.65;;;8.25;;
15234;SDS011;7720;51.926;4.488;2023-04-29T22:52:19;10.52;;;7.82;;
15234;SDS011;7720;51.926;4.488;2023-04-29T22:57:24;10.13;;;8.40;;
15234;SDS011;7720;51.926;4.488;2023-04-29T23:02:28;13.00;;;8.13;;
15234;SDS011;7720;51.926;4.488;2023-04-29T23:07:31;10.35;;;7.97;;
15234;SDS011;7720;51.926;4.488;2023-04-29T23:12:37;12.27;;;8.50;;
15234;SDS011;7720;51.926;4.488;2023-04-29T23:17:41;12.18;;;9.15;;
15234;SDS011;7720;51.926;4.488;2023-04-29T23:22:44;12.90;;;8.20;;
15234;SDS011;7720;51.926;4.488;2023-04-29T23:27:49;13.15;;;8.65;;
15234;SDS011;7720;51.926;4.488;2023-04-29T23:32:53;13.43;;;8.57;;
15234;SDS011;7720;51.926;4.488;2023-04-29T23:37:56;12.10;;;8.52;;
15234;SDS011;7720;51.926;4.488;2023-04-29T23:43:01;13.02;;;9.35;;
15234;SDS011;7720;51.926;4.488;2023-04-29T23:48:05;15.23;;;9.10;;
15234;SDS011;7720;51.926;4.488;2023-04-29T23:53:09;13.65;;;9.32;;
15234;SDS011;7720;51.926;4.488;2023-04-29T23:58:14;12.90;;;8.98;;
